createdAt,value
2018-12-18T00:04:46.886Z,20.32
2018-12-18T00:09:49.558Z,21.02
2018-12-18T00:14:52.026Z,20.65
2018-12-18T00:19:54.588Z,22.60
2018-12-18T00:24:57.040Z,21.10
2018-12-18T00:29:59.438Z,21.57
2018-12-18T00:35:01.856Z,22.75
2018-12-18T00:40:05.181Z,23.60
2018-12-18T00:45:07.726Z,23.22
2018-12-18T00:50:10.745Z,23.30
2018-12-18T00:55:13.090Z,24.77
2018-12-18T01:00:15.526Z,23.70
2018-12-18T01:05:18.018Z,23.45
2018-12-18T01:10:20.415Z,24.72
2018-12-18T01:15:22.840Z,24.50
2018-12-18T01:20:25.349Z,24.65
2018-12-18T01:25:28.451Z,24.75
2018-12-18T01:30:30.825Z,25.15
2018-12-18T01:35:33.170Z,26.80
2018-12-18T01:40:35.511Z,26.68
2018-12-18T01:45:38.022Z,25.57
2018-12-18T01:50:40.429Z,24.90
2018-12-18T01:55:42.786Z,26.37
2018-12-18T02:00:45.159Z,24.27
2018-12-18T02:05:47.714Z,23.67
2018-12-18T02:10:50.394Z,24.35
2018-12-18T02:15:52.854Z,25.43
2018-12-18T02:20:55.315Z,22.95
2018-12-18T02:25:58.154Z,23.70
2018-12-18T02:31:00.640Z,24.70
2018-12-18T02:36:03.106Z,23.90
2018-12-18T02:41:05.549Z,24.92
2018-12-18T02:46:07.990Z,26.60
2018-12-18T02:51:10.535Z,26.48
2018-12-18T02:56:12.987Z,26.65
2018-12-18T03:01:15.466Z,26.60
2018-12-18T03:06:17.862Z,26.73
2018-12-18T03:11:20.585Z,28.38
2018-12-18T03:16:22.926Z,30.15
2018-12-18T03:21:25.355Z,26.85
2018-12-18T03:26:27.764Z,29.92
2018-12-18T03:31:30.524Z,27.85
2018-12-18T03:36:32.955Z,29.85
2018-12-18T03:41:36.047Z,27.25
2018-12-18T03:46:38.660Z,29.98
2018-12-18T03:51:41.146Z,28.65
2018-12-18T03:56:43.497Z,29.95
2018-12-18T04:01:45.893Z,28.20
2018-12-18T04:06:48.302Z,30.95
2018-12-18T04:11:56.230Z,28.30
2018-12-18T04:16:58.596Z,29.60
2018-12-18T04:22:01.082Z,29.75
2018-12-18T04:27:03.537Z,31.05
2018-12-18T04:32:05.990Z,33.70
2018-12-18T04:37:08.554Z,32.40
2018-12-18T04:42:11.119Z,31.12
2018-12-18T04:47:13.742Z,31.65
2018-12-18T04:52:16.247Z,33.48
2018-12-18T04:57:18.716Z,29.72
2018-12-18T05:02:21.244Z,30.55
2018-12-18T05:07:23.574Z,30.77
2018-12-18T05:12:26.323Z,33.55
2018-12-18T05:17:28.863Z,31.33
2018-12-18T05:22:31.254Z,31.42
2018-12-18T05:27:34.857Z,34.00
2018-12-18T05:32:37.309Z,31.37
2018-12-18T05:37:40.138Z,31.85
2018-12-18T05:42:42.439Z,30.80
2018-12-18T05:47:44.975Z,28.73
2018-12-18T05:52:47.552Z,29.52
2018-12-18T05:57:50.926Z,28.87
2018-12-18T06:02:53.387Z,27.75
2018-12-18T06:07:55.754Z,27.13
2018-12-18T06:12:58.228Z,29.65
2018-12-18T06:18:00.890Z,28.27
2018-12-18T06:23:03.378Z,27.80
2018-12-18T06:28:05.850Z,28.17
2018-12-18T06:33:08.278Z,26.48
2018-12-18T06:38:10.753Z,27.15
2018-12-18T06:43:13.170Z,28.02
2018-12-18T06:48:15.790Z,27.35
2018-12-18T06:53:18.181Z,29.63
2018-12-18T06:58:20.555Z,28.27
2018-12-18T07:03:22.992Z,27.80
2018-12-18T07:08:25.352Z,25.57
2018-12-18T07:13:27.874Z,26.02
2018-12-18T07:18:30.271Z,23.87
2018-12-18T07:23:33.780Z,23.65
2018-12-18T07:28:36.259Z,22.58
2018-12-18T07:33:38.665Z,21.57
2018-12-18T07:38:41.058Z,20.72
2018-12-18T07:43:43.515Z,20.48
2018-12-18T07:48:45.925Z,20.35
2018-12-18T07:53:48.614Z,20.68
2018-12-18T07:58:51.130Z,20.95
2018-12-18T08:03:53.606Z,20.27
2018-12-18T08:08:56.119Z,21.00
2018-12-18T08:13:58.626Z,20.02
2018-12-18T08:19:01.113Z,18.95
2018-12-18T08:24:03.793Z,20.60
2018-12-18T08:29:06.258Z,19.40
2018-12-18T08:34:08.791Z,20.25
2018-12-18T08:39:11.230Z,20.80
2018-12-18T08:44:13.776Z,20.48
2018-12-18T08:49:16.130Z,20.48
2018-12-18T08:54:18.916Z,19.57
2018-12-18T08:59:21.285Z,19.20
2018-12-18T09:04:23.950Z,21.02
2018-12-18T09:09:26.431Z,19.55
2018-12-18T09:14:28.920Z,20.77
2018-12-18T09:19:32.418Z,19.87
2018-12-18T09:24:34.879Z,20.20
2018-12-18T09:29:37.269Z,18.20
2018-12-18T09:34:39.762Z,17.65
2018-12-18T09:39:42.975Z,17.23
2018-12-18T09:44:45.370Z,15.23
2018-12-18T09:49:47.769Z,15.28
2018-12-18T09:54:50.163Z,13.55
2018-12-18T09:59:52.770Z,11.97
2018-12-18T10:04:55.224Z,13.32
2018-12-18T10:09:57.672Z,13.35
2018-12-18T10:15:00.140Z,11.75
2018-12-18T10:20:02.728Z,11.95
2018-12-18T10:25:05.147Z,13.35
2018-12-18T10:30:10.779Z,11.97
2018-12-18T10:35:13.565Z,9.15
2018-12-18T10:40:16.287Z,9.20
2018-12-18T10:45:20.297Z,8.70
2018-12-18T10:55:31.926Z,9.90
2018-12-18T11:00:40.029Z,10.10
2018-12-18T11:05:42.724Z,11.12
2018-12-18T11:10:45.096Z,10.43
2018-12-18T11:15:47.709Z,10.53
2018-12-18T11:20:50.188Z,10.80
2018-12-18T11:25:52.926Z,10.53
2018-12-18T11:30:55.403Z,8.63
2018-12-18T11:35:58.933Z,8.85
2018-12-18T11:41:01.602Z,8.88
2018-12-18T11:46:04.050Z,7.60
2018-12-18T11:51:07.466Z,9.48
2018-12-18T11:56:10.013Z,9.18
2018-12-18T12:01:12.610Z,9.15
2018-12-18T12:06:15.018Z,7.15
2018-12-18T12:11:17.538Z,7.60
2018-12-18T12:16:20.117Z,7.78
2018-12-18T12:21:22.834Z,7.72
2018-12-18T12:26:31.005Z,7.65
2018-12-18T12:31:33.526Z,7.05
2018-12-18T12:36:35.970Z,6.10
2018-12-18T12:41:43.438Z,5.60
2018-12-18T12:46:45.881Z,5.28
2018-12-18T12:51:48.259Z,6.33
2018-12-18T12:56:51.056Z,4.75
2018-12-18T13:01:53.593Z,5.65
2018-12-18T13:06:56.513Z,5.60
2018-12-18T13:11:58.945Z,5.42
2018-12-18T13:17:01.350Z,5.62
2018-12-18T13:22:03.865Z,6.25
2018-12-18T13:27:06.309Z,5.55
2018-12-18T13:32:08.913Z,6.25
2018-12-18T13:37:11.248Z,5.92
2018-12-18T13:42:14.221Z,5.12
2018-12-18T13:47:16.552Z,5.70
2018-12-18T13:52:20.867Z,6.22
2018-12-18T13:57:23.228Z,5.95
2018-12-18T14:02:27.027Z,6.15
2018-12-18T14:07:29.364Z,5.55
2018-12-18T14:12:35.310Z,6.08
2018-12-18T14:17:39.445Z,5.20
2018-12-18T14:22:41.967Z,5.47
2018-12-18T14:27:44.862Z,4.58
2018-12-18T14:32:47.422Z,5.20
2018-12-18T14:37:51.511Z,5.03
2018-12-18T14:42:55.561Z,4.55
2018-12-18T14:48:04.246Z,5.72
2018-12-18T14:53:12.105Z,5.58
2018-12-18T14:58:19.053Z,5.90
2018-12-18T15:04:19.652Z,5.47
2018-12-18T15:09:35.604Z,5.53
2018-12-18T15:14:55.115Z,5.78
2018-12-18T15:20:20.775Z,6.47
2018-12-18T17:16:44.179Z,8.53
2018-12-18T17:21:47.827Z,8.30
2018-12-18T17:26:51.184Z,8.58
2018-12-18T17:31:54.933Z,9.33
2018-12-18T17:37:14.217Z,8.53
2018-12-18T17:43:14.491Z,8.98
2018-12-18T17:48:31.890Z,9.15
2018-12-18T17:59:16.438Z,8.18
2018-12-18T18:04:34.633Z,8.78
2018-12-18T18:09:46.207Z,7.92
2018-12-18T18:15:23.778Z,7.62
2018-12-18T18:20:39.594Z,8.60
2018-12-18T18:25:52.078Z,8.60
2018-12-18T18:31:01.998Z,8.50
2018-12-18T18:41:46.667Z,8.30
2018-12-18T18:47:02.292Z,8.00
2018-12-18T18:52:14.411Z,9.08
2018-12-18T18:57:19.629Z,9.68
2018-12-18T19:02:22.499Z,9.00
2018-12-18T19:07:24.862Z,9.03
2018-12-18T19:12:27.242Z,9.53
2018-12-18T19:17:29.566Z,8.43
2018-12-18T19:22:31.961Z,8.70
2018-12-18T19:27:34.339Z,9.00
2018-12-18T19:32:36.677Z,7.90
2018-12-18T19:37:39.022Z,8.40
2018-12-18T19:42:41.423Z,7.90
2018-12-18T19:47:43.850Z,8.45
2018-12-18T19:52:46.238Z,7.35
2018-12-18T19:57:48.621Z,8.58
2018-12-18T20:02:51.243Z,8.35
2018-12-18T20:07:54.785Z,9.05
2018-12-18T20:12:59.406Z,7.90
2018-12-18T20:18:02.371Z,9.40
2018-12-18T20:23:04.821Z,10.03
2018-12-18T20:28:07.780Z,10.43
2018-12-18T20:33:10.187Z,10.40
2018-12-18T20:38:16.793Z,12.18
2018-12-18T20:43:18.103Z,11.15
2018-12-18T20:48:21.549Z,11.78
2018-12-18T20:53:24.037Z,11.78
2018-12-18T20:58:27.083Z,13.15
2018-12-18T21:03:31.993Z,13.55
2018-12-18T21:08:34.379Z,14.20
2018-12-18T21:13:36.754Z,15.28
2018-12-18T21:18:40.095Z,14.73
2018-12-18T21:23:42.646Z,15.80
2018-12-18T21:28:44.968Z,18.35
2018-12-18T21:33:47.793Z,16.50
2018-12-18T21:38:50.048Z,16.07
2018-12-18T21:43:53.224Z,15.68
2018-12-18T21:48:55.555Z,18.87
2018-12-18T21:53:58.170Z,17.15
2018-12-18T21:59:00.787Z,18.32
2018-12-18T22:04:03.724Z,17.92
2018-12-18T22:09:07.143Z,18.60
2018-12-18T22:14:10.576Z,16.97
2018-12-18T22:19:12.959Z,18.35
2018-12-18T22:24:15.883Z,19.48
2018-12-18T22:29:18.235Z,17.90
2018-12-18T22:34:21.063Z,18.32
2018-12-18T22:39:23.408Z,18.87
2018-12-18T22:44:27.130Z,19.40
2018-12-18T22:49:29.515Z,19.02
2018-12-18T22:54:31.852Z,18.37
2018-12-18T22:59:34.261Z,17.40
2018-12-18T23:04:36.835Z,18.32
2018-12-18T23:09:39.202Z,19.00
2018-12-18T23:14:42.567Z,18.48
2018-12-18T23:19:45.023Z,20.55
2018-12-18T23:24:47.958Z,17.90
2018-12-18T23:29:50.339Z,18.12
2018-12-18T23:34:52.828Z,18.60
2018-12-18T23:39:55.772Z,18.55
2018-12-18T23:44:58.141Z,18.70
2018-12-18T23:50:01.855Z,18.52
2018-12-18T23:55:04.471Z,18.73
